Huvudsida
METAR-TAF:

METAR-TAF

Flygplatser :

Saint-Denis, Réunion

latitud: 20-53S, longitud: 055-31E, höjd: 21 m

Aktuellt väderrapport

Denna rapport gjordes för 23 minuter sedan, klockan 15:30 UTC
Vind 13 kt från sydost
Temperatur 24°C
Fuktighet 69%
Tryck 1020 hPa
Sikt 10 km eller mer

METAR: FMEE 221530Z AUTO 13013KT 9999 NCD 24/18 Q1020 TEMPO 4500 -SHRA

Tid: 19:53 (15:53 UTC)

Väderprognos

Denna rapport gjordes för 4 timmar och 53 minuter sedan, klockan 11:00 UTC
Prognos gäller från 22 kl. 12 UTC till 23 kl. 18 UTC
Vind 15 kt från sydost
Sikt 10 km eller mer
Få moln på en höjd av 3000 ft
Sannolikhet 40% :
Temporärt
från 22 kl. 14 UTC till 23 kl. 04 UTC
Sikt: 4500 m
lätta regnskurar
Blir
från 23 kl. 04 UTC till 23 kl. 06 UTC
Vind 18 kt från ost/sydost i byarna ända upp till 28 kt
Blir
från 23 kl. 12 UTC till 23 kl. 14 UTC
Vind 13 kt från sydost

TAF: FMEE 221100Z 2212/2318 13015KT 9999 FEW030 PROB40 TEMPO 2214/2304 4500 -SHRA BECMG 2304/2306 11018G28KT BECMG 2312/2314 13013KT

Aktuella väderrapporter och prognoser från 4000 flygplatser (METAR- och TAF-rapporter).

De tillgängliga stationerna syns som gula och röda prickar på kartan.

För musen över prickarna för att se namnen på stationerna.

Klicka sedan för att få väderrapporter och prognoser.

För att ändra kartan: Klicka på de gröna knapparna med ett svart kors på för att zooma in; den gröna knappen med ett streck på för att zooma ut; eller på de gröna pilarna för angränsande kartor.


METAR-TAF: